createdAt,value
2023-04-04T00:00:20.003Z,4.68
2023-04-04T00:02:46.899Z,4.93
2023-04-04T00:05:14.121Z,4.95
2023-04-04T00:07:41.230Z,4.68
2023-04-04T00:10:08.672Z,4.60
2023-04-04T00:12:36.548Z,5.10
2023-04-04T00:15:04.038Z,5.13
2023-04-04T00:17:30.969Z,4.65
2023-04-04T00:19:58.060Z,4.90
2023-04-04T00:22:25.979Z,4.20
2023-04-04T00:24:52.893Z,4.00
2023-04-04T00:27:19.607Z,4.40
2023-04-04T00:29:46.829Z,4.57
2023-04-04T00:32:13.715Z,4.18
2023-04-04T00:34:40.641Z,4.00
2023-04-04T00:37:07.576Z,4.00
2023-04-04T00:39:34.610Z,4.32
2023-04-04T00:42:01.947Z,4.22
2023-04-04T00:44:30.631Z,4.47
2023-04-04T00:46:57.507Z,5.22
2023-04-04T00:49:24.285Z,6.10
2023-04-04T00:51:51.096Z,6.32
2023-04-04T00:54:17.993Z,6.22
2023-04-04T00:56:44.827Z,6.88
2023-04-04T00:59:11.960Z,7.47
2023-04-04T01:01:38.992Z,9.70
2023-04-04T01:04:06.227Z,11.43
2023-04-04T01:06:33.241Z,16.15
2023-04-04T01:09:00.164Z,19.42
2023-04-04T01:11:28.549Z,16.27
2023-04-04T01:13:55.907Z,12.90
2023-04-04T01:16:24.241Z,12.20
2023-04-04T01:18:52.565Z,12.35
2023-04-04T01:21:21.849Z,12.63
2023-04-04T01:24:01.571Z,12.40
2023-04-04T01:26:29.134Z,11.52
2023-04-04T01:28:57.252Z,11.07
2023-04-04T01:31:46.554Z,10.95
2023-04-04T01:34:31.992Z,11.60
2023-04-04T01:37:07.692Z,11.50
2023-04-04T01:39:48.297Z,10.88
2023-04-04T01:42:16.957Z,10.30
2023-04-04T01:44:44.369Z,7.47
2023-04-04T01:47:13.122Z,7.40
2023-04-04T01:49:39.956Z,6.53
2023-04-04T01:52:07.449Z,6.00
2023-04-04T01:54:36.032Z,6.00
2023-04-04T01:57:03.035Z,6.75
2023-04-04T01:59:30.022Z,6.07
2023-04-04T02:01:57.715Z,6.18
2023-04-04T02:04:24.699Z,5.80
2023-04-04T02:06:52.743Z,6.28
2023-04-04T02:09:19.722Z,6.18
2023-04-04T02:11:46.539Z,5.78
2023-04-04T02:14:13.356Z,6.07
2023-04-04T02:16:40.320Z,6.28
2023-04-04T02:19:07.092Z,6.55
2023-04-04T02:21:33.863Z,5.90
2023-04-04T02:24:00.669Z,5.65
2023-04-04T02:26:27.436Z,7.15
2023-04-04T02:28:54.263Z,6.78
2023-04-04T02:31:21.801Z,7.88
2023-04-04T02:33:48.842Z,6.95
2023-04-04T02:36:16.257Z,6.35
2023-04-04T02:38:43.061Z,7.20
2023-04-04T02:41:09.897Z,6.63
2023-04-04T02:43:36.708Z,6.90
2023-04-04T02:46:10.978Z,6.53
2023-04-04T02:48:45.664Z,6.90
2023-04-04T02:51:12.441Z,7.65
2023-04-04T02:53:39.274Z,8.88
2023-04-04T02:56:06.575Z,9.70
2023-04-04T02:58:34.402Z,9.77
2023-04-04T03:01:01.283Z,9.10
2023-04-04T03:03:28.220Z,8.43
2023-04-04T03:05:55.152Z,7.88
2023-04-04T03:08:22.566Z,7.60
2023-04-04T03:10:49.383Z,6.45
2023-04-04T03:13:16.251Z,6.70
2023-04-04T03:15:43.850Z,6.97
2023-04-04T03:18:14.397Z,6.85
2023-04-04T03:20:41.496Z,6.97
2023-04-04T03:23:08.501Z,7.13
2023-04-04T03:25:35.621Z,8.43
2023-04-04T03:28:11.645Z,8.65
2023-04-04T03:30:39.005Z,7.93
2023-04-04T03:33:09.906Z,9.45
2023-04-04T03:35:40.223Z,8.15
2023-04-04T03:38:07.929Z,7.90
2023-04-04T03:40:34.816Z,8.00
2023-04-04T03:43:02.513Z,7.57
2023-04-04T03:45:32.900Z,7.50
2023-04-04T03:47:59.716Z,7.65
2023-04-04T03:50:26.542Z,7.70
2023-04-04T03:52:53.397Z,7.47
2023-04-04T03:55:20.173Z,7.30
2023-04-04T03:57:47.181Z,7.90
2023-04-04T04:00:14.358Z,8.27
2023-04-04T04:02:41.391Z,7.43
2023-04-04T04:05:09.244Z,7.18
2023-04-04T04:07:36.193Z,7.30
2023-04-04T04:10:03.431Z,7.80
2023-04-04T04:12:30.277Z,7.63
2023-04-04T04:14:57.031Z,6.85
2023-04-04T04:17:23.957Z,6.70
2023-04-04T04:19:50.996Z,7.10
2023-04-04T04:22:17.759Z,7.20
2023-04-04T04:24:44.656Z,7.50
2023-04-04T04:27:11.717Z,7.35
2023-04-04T04:29:38.456Z,8.10
2023-04-04T04:32:05.296Z,7.25
2023-04-04T04:34:32.405Z,7.53
2023-04-04T04:36:59.375Z,7.78
2023-04-04T04:39:26.154Z,7.22
2023-04-04T04:41:53.366Z,7.32
2023-04-04T04:44:20.312Z,7.60
2023-04-04T04:46:47.143Z,7.55
2023-04-04T04:49:13.968Z,7.65
2023-04-04T04:51:42.500Z,7.88
2023-04-04T04:54:09.733Z,8.05
2023-04-04T04:56:36.866Z,8.40
2023-04-04T04:59:04.125Z,8.30
2023-04-04T05:01:30.993Z,8.23
2023-04-04T05:03:57.994Z,7.90
2023-04-04T05:06:24.872Z,8.20
2023-04-04T05:08:51.864Z,7.60
2023-04-04T05:11:18.756Z,6.97
2023-04-04T05:13:45.660Z,6.38
2023-04-04T05:16:12.522Z,6.43
2023-04-04T05:18:39.328Z,7.10
2023-04-04T05:21:06.190Z,6.53
2023-04-04T05:23:32.958Z,6.22
2023-04-04T05:25:59.707Z,6.38
2023-04-04T05:28:26.516Z,6.63
2023-04-04T05:30:53.856Z,7.90
2023-04-04T05:33:20.697Z,9.20
2023-04-04T05:35:47.534Z,12.95
2023-04-04T05:38:14.571Z,19.00
2023-04-04T05:40:41.585Z,19.30
2023-04-04T05:43:09.424Z,20.48
2023-04-04T05:45:36.967Z,21.40
2023-04-04T05:48:04.525Z,17.65
2023-04-04T05:50:31.600Z,12.20
2023-04-04T05:52:58.888Z,9.55
2023-04-04T05:55:25.678Z,10.60
2023-04-04T05:57:52.888Z,12.50
2023-04-04T06:00:19.828Z,10.75
2023-04-04T06:02:46.990Z,8.82
2023-04-04T06:05:14.107Z,8.20
2023-04-04T06:07:41.150Z,7.68
2023-04-04T06:10:08.956Z,6.82
2023-04-04T06:12:35.785Z,6.80
2023-04-04T06:15:02.611Z,9.07
2023-04-04T06:17:29.400Z,7.97
2023-04-04T06:19:56.658Z,5.63
2023-04-04T06:22:23.496Z,5.78
2023-04-04T06:24:50.440Z,6.70
2023-04-04T06:27:17.216Z,6.60
2023-04-04T06:29:44.107Z,7.32
2023-04-04T06:32:11.271Z,7.32
2023-04-04T06:34:38.483Z,7.38
2023-04-04T06:37:05.228Z,6.63
2023-04-04T06:39:34.292Z,6.57
2023-04-04T06:42:01.583Z,6.28
2023-04-04T06:44:28.509Z,7.25
2023-04-04T06:46:55.390Z,8.38
2023-04-04T06:49:22.205Z,8.95
2023-04-04T06:51:50.821Z,10.95
2023-04-04T06:54:17.790Z,9.77
2023-04-04T06:56:44.599Z,8.52
2023-04-04T06:59:12.692Z,6.90
2023-04-04T07:01:39.548Z,7.57
2023-04-04T07:04:06.396Z,8.10
2023-04-04T07:06:33.272Z,9.57
2023-04-04T07:09:00.216Z,7.18
2023-04-04T07:11:27.202Z,6.68
2023-04-04T07:13:54.181Z,6.65
2023-04-04T07:16:21.174Z,7.28
2023-04-04T07:18:48.038Z,8.02
2023-04-04T07:21:16.245Z,11.95
2023-04-04T07:23:46.316Z,11.13
2023-04-04T07:26:13.122Z,9.70
2023-04-04T07:28:39.875Z,7.75
2023-04-04T07:31:06.700Z,7.60
2023-04-04T07:33:33.490Z,7.05
2023-04-04T07:36:03.624Z,7.32
2023-04-04T07:38:30.476Z,9.82
2023-04-04T07:40:57.309Z,10.32
2023-04-04T07:43:24.156Z,9.32
2023-04-04T07:45:51.026Z,7.80
2023-04-04T07:48:19.279Z,7.63
2023-04-04T07:50:46.870Z,7.32
2023-04-04T07:53:13.687Z,8.15
2023-04-04T07:55:40.530Z,8.98
2023-04-04T07:58:07.449Z,10.95
2023-04-04T08:00:34.266Z,9.60
2023-04-04T08:03:02.609Z,9.45
2023-04-04T08:05:29.595Z,8.30
2023-04-04T08:07:56.460Z,8.43
2023-04-04T08:10:23.223Z,8.20
2023-04-04T08:12:50.051Z,7.93
2023-04-04T08:15:16.951Z,8.45
2023-04-04T08:17:43.803Z,9.13
2023-04-04T08:20:11.452Z,10.48
2023-04-04T08:22:40.163Z,16.92
2023-04-04T08:25:07.216Z,18.25
2023-04-04T08:27:34.204Z,14.82
2023-04-04T08:30:03.840Z,12.07
2023-04-04T08:32:32.161Z,13.40
2023-04-04T08:34:59.348Z,13.93
2023-04-04T08:37:26.128Z,11.82
2023-04-04T08:39:53.090Z,10.20
2023-04-04T08:42:20.827Z,11.88
2023-04-04T08:44:52.245Z,11.20
2023-04-04T08:47:21.588Z,10.95
2023-04-04T08:49:51.634Z,9.93
2023-04-04T08:52:20.691Z,9.43
2023-04-04T08:54:50.212Z,9.95
2023-04-04T08:57:17.287Z,10.10
2023-04-04T08:59:44.417Z,9.43
2023-04-04T09:02:11.944Z,9.40
2023-04-04T09:04:43.036Z,8.65
2023-04-04T09:07:10.579Z,9.52
2023-04-04T09:09:38.874Z,9.20
2023-04-04T09:12:06.784Z,8.75
2023-04-04T09:14:35.160Z,9.07
2023-04-04T09:17:02.270Z,8.27
2023-04-04T09:19:29.112Z,9.00
2023-04-04T09:21:56.870Z,10.55
2023-04-04T09:24:23.706Z,10.20
2023-04-04T09:26:53.971Z,9.23
2023-04-04T09:29:21.971Z,8.48
2023-04-04T09:31:50.155Z,8.10
2023-04-04T09:34:19.395Z,9.63
2023-04-04T09:36:46.866Z,9.40
2023-04-04T09:39:16.692Z,7.80
2023-04-04T09:41:45.875Z,7.75
2023-04-04T09:44:13.266Z,8.25
2023-04-04T09:46:41.562Z,8.75
2023-04-04T09:49:13.268Z,8.50
2023-04-04T09:51:43.359Z,9.23
2023-04-04T09:54:18.593Z,9.13
2023-04-04T09:56:50.536Z,8.70
2023-04-04T09:59:21.142Z,7.93
2023-04-04T10:01:51.593Z,7.60
2023-04-04T10:04:19.220Z,7.18
2023-04-04T10:06:46.351Z,6.35
2023-04-04T10:09:13.543Z,6.45
2023-04-04T10:11:40.307Z,7.07
2023-04-04T10:14:09.215Z,6.47
2023-04-04T10:16:39.225Z,6.78
2023-04-04T10:19:08.839Z,7.00
2023-04-04T10:21:36.088Z,7.72
2023-04-04T10:24:09.286Z,6.72
2023-04-04T10:26:36.951Z,6.35
2023-04-04T10:29:05.985Z,6.25
2023-04-04T10:31:38.396Z,6.25
2023-04-04T10:34:20.542Z,5.97
2023-04-04T10:36:52.705Z,5.85
2023-04-04T10:39:27.249Z,5.55
2023-04-04T10:41:56.584Z,5.07
2023-04-04T10:44:35.321Z,5.35
2023-04-04T10:47:14.681Z,5.03
2023-04-04T10:49:45.026Z,5.47
2023-04-04T10:52:18.297Z,6.07
2023-04-04T10:54:45.688Z,5.70
2023-04-04T10:57:16.238Z,5.43
2023-04-04T11:00:06.563Z,6.20
2023-04-04T11:02:53.456Z,5.45
2023-04-04T11:05:37.571Z,6.05
2023-04-04T11:08:09.017Z,5.88
2023-04-04T11:10:39.396Z,5.47
2023-04-04T11:13:32.661Z,5.30
2023-04-04T11:16:10.236Z,5.70
2023-04-04T11:18:43.602Z,6.57
2023-04-04T11:21:24.116Z,7.13
2023-04-04T11:24:13.269Z,7.00
2023-04-04T11:26:42.829Z,7.10
2023-04-04T11:29:13.628Z,7.50
2023-04-04T11:31:43.976Z,7.00
2023-04-04T11:34:16.219Z,5.90
2023-04-04T11:36:45.117Z,5.07
2023-04-04T11:39:30.129Z,5.30
2023-04-04T11:42:17.719Z,5.75
2023-04-04T11:45:06.938Z,6.13
2023-04-04T11:47:33.872Z,5.70
2023-04-04T11:50:02.526Z,6.03
2023-04-04T11:52:36.408Z,5.90
2023-04-04T11:55:13.984Z,5.57
2023-04-04T11:57:42.444Z,5.45
2023-04-04T12:00:12.322Z,5.45
2023-04-04T12:02:39.693Z,6.07
2023-04-04T12:05:08.249Z,6.75
2023-04-04T12:07:35.530Z,5.75
2023-04-04T12:10:03.392Z,6.07
2023-04-04T12:12:30.239Z,6.18
2023-04-04T12:15:06.752Z,5.63
2023-04-04T12:17:45.798Z,6.20
2023-04-04T12:20:16.547Z,5.97
2023-04-04T12:22:44.058Z,5.35
2023-04-04T12:25:11.384Z,5.43
2023-04-04T12:27:38.594Z,6.55
2023-04-04T12:30:10.997Z,7.65
2023-04-04T12:32:37.997Z,8.50
2023-04-04T12:35:06.060Z,7.18
2023-04-04T12:37:33.235Z,7.80
2023-04-04T12:40:03.275Z,7.38
2023-04-04T12:42:32.109Z,7.00
2023-04-04T12:45:02.113Z,7.53
2023-04-04T12:47:31.413Z,6.72
2023-04-04T12:49:58.255Z,7.43
2023-04-04T12:52:33.650Z,6.78
2023-04-04T12:55:10.025Z,6.80
2023-04-04T12:57:39.452Z,6.88
2023-04-04T13:00:09.031Z,6.65
2023-04-04T13:02:37.443Z,7.07
2023-04-04T13:05:07.447Z,7.90
2023-04-04T13:07:43.028Z,7.78
2023-04-04T13:10:14.815Z,7.95
2023-04-04T13:13:02.432Z,7.82
2023-04-04T13:15:48.140Z,7.30
2023-04-04T13:18:16.983Z,6.70
2023-04-04T13:20:44.025Z,6.60
2023-04-04T13:23:10.925Z,6.80
2023-04-04T13:25:38.610Z,6.75
2023-04-04T13:28:06.370Z,7.13
2023-04-04T13:30:33.972Z,6.82
2023-04-04T13:33:00.840Z,7.93
2023-04-04T13:35:27.762Z,6.72
2023-04-04T13:37:54.555Z,7.15
2023-04-04T13:40:21.413Z,6.65
2023-04-04T13:42:48.306Z,6.90
2023-04-04T13:45:15.482Z,7.30
2023-04-04T13:47:42.377Z,8.68
2023-04-04T13:50:09.562Z,8.93
2023-04-04T13:52:36.345Z,7.32
2023-04-04T13:55:06.041Z,6.10
2023-04-04T13:57:33.134Z,6.07
2023-04-04T14:00:00.006Z,7.43
2023-04-04T14:02:26.899Z,6.15
2023-04-04T14:04:53.737Z,6.03
2023-04-04T14:07:20.488Z,6.28
2023-04-04T14:09:47.436Z,6.28
2023-04-04T14:12:17.963Z,7.35
2023-04-04T14:14:44.805Z,7.45
2023-04-04T14:17:11.653Z,12.48
2023-04-04T14:19:39.878Z,7.97
2023-04-04T14:22:07.428Z,6.75
2023-04-04T14:24:34.336Z,7.20
2023-04-04T14:27:24.267Z,7.07
2023-04-04T14:33:46.349Z,7.68
2023-04-04T14:36:13.410Z,7.78
2023-04-04T14:38:40.305Z,7.63
2023-04-04T14:41:07.669Z,6.30
2023-04-04T14:43:38.325Z,6.40
2023-04-04T14:46:06.393Z,6.20
2023-04-04T14:48:33.429Z,7.68
2023-04-04T14:51:01.226Z,6.43
2023-04-04T14:53:28.103Z,7.18
2023-04-04T14:55:54.931Z,7.82
2023-04-04T14:58:21.692Z,6.75
2023-04-04T15:00:49.409Z,6.65
2023-04-04T15:03:16.587Z,6.90
2023-04-04T15:05:43.486Z,7.05
2023-04-04T15:08:10.487Z,6.72
2023-04-04T15:10:37.284Z,6.43
2023-04-04T15:13:04.131Z,6.63
2023-04-04T15:15:31.501Z,6.93
2023-04-04T15:17:58.355Z,7.63
2023-04-04T15:20:25.216Z,8.52
2023-04-04T15:22:52.055Z,7.68
2023-04-04T15:25:18.815Z,8.30
2023-04-04T15:27:45.903Z,8.90
2023-04-04T15:30:13.589Z,7.60
2023-04-04T15:32:40.370Z,6.97
2023-04-04T15:35:15.062Z,6.65
2023-04-04T15:37:44.539Z,6.53
2023-04-04T15:40:12.413Z,7.25
2023-04-04T15:42:39.514Z,6.85
2023-04-04T15:45:07.251Z,7.07
2023-04-04T15:47:34.741Z,6.75
2023-04-04T15:50:01.928Z,6.97
2023-04-04T15:52:28.841Z,6.65
2023-04-04T15:54:55.871Z,7.15
2023-04-04T15:57:22.715Z,7.03
2023-04-04T15:59:52.356Z,6.85
2023-04-04T16:02:19.899Z,7.32
2023-04-04T16:04:46.704Z,8.10
2023-04-04T16:07:13.492Z,7.68
2023-04-04T16:09:40.345Z,7.20
2023-04-04T16:12:07.141Z,7.30
2023-04-04T16:14:33.924Z,8.15
2023-04-04T16:17:02.725Z,10.93
2023-04-04T16:19:29.556Z,8.32
2023-04-04T16:21:56.461Z,7.63
2023-04-04T16:24:23.182Z,8.63
2023-04-04T16:26:50.183Z,9.05
2023-04-04T16:29:18.481Z,9.02
2023-04-04T16:31:45.914Z,8.50
2023-04-04T16:34:12.839Z,9.27
2023-04-04T16:36:39.705Z,9.02
2023-04-04T16:39:07.046Z,8.43
2023-04-04T16:41:36.678Z,8.50
2023-04-04T16:44:03.524Z,9.63
2023-04-04T16:46:30.495Z,8.07
2023-04-04T16:48:57.435Z,7.75
2023-04-04T16:51:24.403Z,7.60
2023-04-04T16:53:51.160Z,6.88
2023-04-04T16:56:17.986Z,7.32
2023-04-04T16:58:45.778Z,9.73
2023-04-04T17:01:18.100Z,8.38
2023-04-04T17:03:45.074Z,7.65
2023-04-04T17:06:12.550Z,8.20
2023-04-04T17:08:40.768Z,7.15
2023-04-04T17:11:08.207Z,7.50
2023-04-04T17:13:35.588Z,7.93
2023-04-04T17:16:02.531Z,7.93
2023-04-04T17:18:29.582Z,7.93
2023-04-04T17:20:56.352Z,7.70
2023-04-04T17:23:23.141Z,7.38
2023-04-04T17:25:49.913Z,8.13
2023-04-04T17:28:16.771Z,9.05
2023-04-04T17:30:43.662Z,7.00
2023-04-04T17:33:10.504Z,8.32
2023-04-04T17:35:37.471Z,8.35
2023-04-04T17:38:04.236Z,8.02
2023-04-04T17:40:31.192Z,8.73
2023-04-04T17:42:57.981Z,9.00
2023-04-04T17:45:24.856Z,9.32
2023-04-04T17:47:51.647Z,9.07
2023-04-04T17:50:18.504Z,8.85
2023-04-04T17:52:45.252Z,10.40
2023-04-04T17:55:12.301Z,9.18
2023-04-04T17:57:39.850Z,8.23
2023-04-04T18:00:07.536Z,7.95
2023-04-04T18:02:34.362Z,9.13
2023-04-04T18:05:01.227Z,8.70
2023-04-04T18:07:28.005Z,8.68
2023-04-04T18:09:54.753Z,10.25
2023-04-04T18:12:22.242Z,9.85
2023-04-04T18:14:49.196Z,9.82
2023-04-04T18:17:16.018Z,10.32
2023-04-04T18:19:42.833Z,10.82
2023-04-04T18:22:09.818Z,11.68
2023-04-04T18:24:37.334Z,11.13
2023-04-04T18:27:04.141Z,13.95
2023-04-04T18:29:32.757Z,14.73
2023-04-04T18:32:03.861Z,13.77
2023-04-04T18:34:31.071Z,12.70
2023-04-04T18:36:58.350Z,12.40
2023-04-04T18:39:25.200Z,12.98
2023-04-04T18:41:52.162Z,12.75
2023-04-04T18:44:19.084Z,11.00
2023-04-04T18:46:45.917Z,13.07
2023-04-04T18:49:12.808Z,11.55
2023-04-04T18:51:39.601Z,11.45
2023-04-04T18:54:06.559Z,11.52
2023-04-04T18:56:33.359Z,12.45
2023-04-04T18:59:00.275Z,11.75
2023-04-04T19:01:27.507Z,11.35
2023-04-04T19:03:55.461Z,10.80
2023-04-04T19:06:26.837Z,10.77
2023-04-04T19:08:57.505Z,9.85
2023-04-04T19:11:25.369Z,10.48
2023-04-04T19:13:52.729Z,11.25
2023-04-04T19:16:19.676Z,12.13
2023-04-04T19:18:46.575Z,11.35
2023-04-04T19:21:13.395Z,12.32
2023-04-04T19:23:40.254Z,11.98
2023-04-04T19:26:07.594Z,12.93
2023-04-04T19:28:34.846Z,12.43
2023-04-04T19:31:04.545Z,11.75
2023-04-04T19:33:33.297Z,11.82
2023-04-04T19:36:06.476Z,11.18
2023-04-04T19:38:35.923Z,11.93
2023-04-04T19:41:28.209Z,11.57
2023-04-04T19:43:54.970Z,12.05
2023-04-04T19:46:27.412Z,12.55
2023-04-04T19:49:13.626Z,12.98
2023-04-04T19:51:48.505Z,11.88
2023-04-04T19:54:15.494Z,12.07
2023-04-04T19:56:45.034Z,13.93
2023-04-04T19:59:51.051Z,15.15
2023-04-04T20:02:47.449Z,17.20
2023-04-04T20:05:29.601Z,24.58
2023-04-04T20:07:56.407Z,15.43
2023-04-04T20:10:41.327Z,22.17
2023-04-04T20:13:08.981Z,17.73
2023-04-04T20:15:45.184Z,17.20
2023-04-04T20:18:21.094Z,15.80
2023-04-04T20:21:00.768Z,18.80
2023-04-04T20:23:28.705Z,21.13
2023-04-04T20:25:56.633Z,16.33
2023-04-04T20:28:28.082Z,14.48
2023-04-04T20:30:55.318Z,14.70
2023-04-04T20:33:39.291Z,16.60
2023-04-04T20:36:07.912Z,16.55
2023-04-04T20:38:37.020Z,13.57
2023-04-04T20:41:09.924Z,11.55
2023-04-04T20:43:37.311Z,11.63
2023-04-04T20:46:04.605Z,10.35
2023-04-04T20:48:39.857Z,10.40
2023-04-04T20:51:28.443Z,10.27
2023-04-04T20:54:00.975Z,10.60
2023-04-04T20:56:39.952Z,10.63
2023-04-04T20:59:24.595Z,9.73
2023-04-04T21:01:51.501Z,11.02
2023-04-04T21:04:26.016Z,9.68
2023-04-04T21:06:53.374Z,10.40
2023-04-04T21:09:20.510Z,11.05
2023-04-04T21:11:47.490Z,10.95
2023-04-04T21:14:28.254Z,11.65
2023-04-04T21:16:55.092Z,10.82
2023-04-04T21:19:23.476Z,11.02
2023-04-04T21:21:51.208Z,11.50
2023-04-04T21:24:18.138Z,10.68
2023-04-04T21:26:44.917Z,11.32
2023-04-04T21:29:16.721Z,10.55
2023-04-04T21:31:43.892Z,10.25
2023-04-04T21:34:19.941Z,9.82
2023-04-04T21:39:23.797Z,9.63
2023-04-04T21:41:53.934Z,9.70
2023-04-04T21:44:20.763Z,9.48
2023-04-04T21:46:51.304Z,9.77
2023-04-04T21:49:18.268Z,9.15
2023-04-04T21:51:45.091Z,8.90
2023-04-04T21:54:11.923Z,9.40
2023-04-04T21:56:38.918Z,9.68
2023-04-04T21:59:08.927Z,9.68
2023-04-04T22:01:37.506Z,9.20
2023-04-04T22:04:04.412Z,9.68
2023-04-04T22:06:31.314Z,9.32
2023-04-04T22:08:59.958Z,9.30
2023-04-04T22:11:27.609Z,10.20
2023-04-04T22:14:03.506Z,9.70
2023-04-04T22:16:31.333Z,9.55
2023-04-04T22:18:58.970Z,9.70
2023-04-04T22:21:25.983Z,9.65
2023-04-04T22:24:03.084Z,9.63
2023-04-04T22:26:35.876Z,9.75
2023-04-04T22:29:04.237Z,9.82
2023-04-04T22:31:31.816Z,9.70
2023-04-04T22:33:58.637Z,10.35
2023-04-04T22:36:25.508Z,9.73
2023-04-04T22:38:57.397Z,10.63
2023-04-04T22:41:30.246Z,10.23
2023-04-04T22:43:57.849Z,10.60
2023-04-04T22:46:26.053Z,10.63
2023-04-04T22:49:06.502Z,11.70
2023-04-04T22:51:45.153Z,10.07
2023-04-04T22:54:17.342Z,11.13
2023-04-04T22:56:44.226Z,12.13
2023-04-04T22:59:11.318Z,11.80
2023-04-04T23:01:38.407Z,11.18
2023-04-04T23:04:05.730Z,11.70
2023-04-04T23:06:32.637Z,10.95
2023-04-04T23:08:59.472Z,9.82
2023-04-04T23:11:27.380Z,10.10
2023-04-04T23:13:54.423Z,9.60
2023-04-04T23:16:23.480Z,10.25
2023-04-04T23:18:50.440Z,10.25
2023-04-04T23:21:17.222Z,10.93
2023-04-04T23:23:44.040Z,8.88
2023-04-04T23:26:11.073Z,10.70
2023-04-04T23:28:37.897Z,10.27
2023-04-04T23:31:04.773Z,8.90
2023-04-04T23:33:31.647Z,9.38
2023-04-04T23:35:58.430Z,9.65
2023-04-04T23:38:25.423Z,10.32
2023-04-04T23:40:53.739Z,9.27
2023-04-04T23:43:20.508Z,9.73
2023-04-04T23:45:47.568Z,10.35
2023-04-04T23:48:14.507Z,9.65
2023-04-04T23:50:41.865Z,9.90
2023-04-04T23:53:08.876Z,9.68
2023-04-04T23:55:35.735Z,9.57
2023-04-04T23:58:03.507Z,9.98
